Boskydell, Illinois
Current Conditions -  °F | °C
As of 6:52 AM on Thursday 23 Oct 2014 (Local Time) from KMWA Reporting Station
Clear Clear  
Wind Chill: 35°   Ceiling: Unl
Heat Index: 39°   Visibility: 20mi
Dew Point: 37°   Wind: 6mph
Humidity: 93%   Direction: 120°ESE
Pressure: 30.23"   Gusts: NA
Location:  37.7248°N, 89.197°W
Report Text: KMWA 231152Z 12005KT 20SM SKC 04/03 A3023
Loading
Personal Weather Stations






























Interactive Weather Map
Tropical Storm Tracking
New forecast layout! Learn more

10-Day Weather Forecast

Advertisements
Track Severe Weather on mobile